createdAt,value
2019-03-20T00:00:40.491Z,37.90
2019-03-20T00:03:09.971Z,32.75
2019-03-20T00:05:39.415Z,38.08
2019-03-20T00:08:08.827Z,40.65
2019-03-20T00:10:38.214Z,47.20
2019-03-20T00:13:07.794Z,45.10
2019-03-20T00:15:37.232Z,42.98
2019-03-20T00:18:06.753Z,40.38
2019-03-20T00:20:40.171Z,41.88
2019-03-20T00:23:10.607Z,38.06
2019-03-20T00:25:41.044Z,37.75
2019-03-20T00:28:10.392Z,40.10
2019-03-20T00:30:39.917Z,35.73
2019-03-20T00:33:09.523Z,38.02
2019-03-20T00:35:38.948Z,46.65
2019-03-20T00:38:08.385Z,33.53
2019-03-20T00:40:39.330Z,41.83
2019-03-20T00:43:08.750Z,50.90
2019-03-20T00:45:38.203Z,41.75
2019-03-20T00:48:07.624Z,42.93
2019-03-20T00:50:37.136Z,43.00
2019-03-20T00:53:06.623Z,40.85
2019-03-20T00:55:36.074Z,38.83
2019-03-20T00:58:06.156Z,42.58
2019-03-20T01:00:36.999Z,43.25
2019-03-20T01:03:06.453Z,42.45
2019-03-20T01:05:35.802Z,46.83
2019-03-20T01:08:05.602Z,38.15
2019-03-20T01:10:36.140Z,41.40
2019-03-20T01:13:05.981Z,40.67
2019-03-20T01:15:35.485Z,43.65
2019-03-20T01:18:05.370Z,41.77
2019-03-20T01:20:34.733Z,45.25
2019-03-20T01:23:04.156Z,39.67
2019-03-20T01:25:35.169Z,43.73
2019-03-20T01:28:05.476Z,46.95
2019-03-20T01:30:36.296Z,42.33
2019-03-20T01:33:15.837Z,40.05
2019-03-20T01:35:46.810Z,32.98
2019-03-20T01:38:16.163Z,40.53
2019-03-20T01:40:45.545Z,42.03
2019-03-20T01:43:14.906Z,41.60
2019-03-20T01:45:44.271Z,38.23
2019-03-20T01:48:13.630Z,33.27
2019-03-20T01:50:42.963Z,40.30
2019-03-20T01:53:12.381Z,39.13
2019-03-20T01:55:41.770Z,42.45
2019-03-20T01:58:11.122Z,39.63
2019-03-20T02:00:40.834Z,49.88
2019-03-20T02:03:10.308Z,45.98
2019-03-20T02:05:39.756Z,46.25
2019-03-20T02:08:09.099Z,33.10
2019-03-20T02:10:38.486Z,41.92
2019-03-20T02:13:07.905Z,39.48
2019-03-20T02:15:39.232Z,39.48
2019-03-20T02:18:09.318Z,35.85
2019-03-20T02:20:38.752Z,46.37
2019-03-20T02:23:08.125Z,40.98
2019-03-20T02:25:37.592Z,36.63
2019-03-20T02:28:07.011Z,45.23
2019-03-20T02:30:36.506Z,45.38
2019-03-20T02:33:06.084Z,41.60
2019-03-20T02:35:50.266Z,44.40
2019-03-20T02:38:07.636Z,39.80
2019-03-20T02:40:37.055Z,47.40
2019-03-20T02:43:06.555Z,36.98
2019-03-20T02:45:36.006Z,42.45
2019-03-20T02:48:05.769Z,34.55
2019-03-20T02:50:35.112Z,44.45
2019-03-20T02:53:04.598Z,43.87
2019-03-20T02:55:33.946Z,40.92
2019-03-20T02:58:03.493Z,45.00
2019-03-20T03:00:32.989Z,45.12
2019-03-20T03:03:02.424Z,49.38
2019-03-20T03:05:31.840Z,39.18
2019-03-20T03:08:01.210Z,42.23
2019-03-20T03:10:30.699Z,52.67
2019-03-20T03:13:00.135Z,34.90
2019-03-20T03:15:29.585Z,39.27
2019-03-20T03:17:58.997Z,37.85
2019-03-20T03:20:28.336Z,45.08
2019-03-20T03:22:57.718Z,39.80
2019-03-20T03:25:28.075Z,36.25
2019-03-20T03:27:57.842Z,50.97
2019-03-20T03:30:27.539Z,48.20
2019-03-20T03:32:56.958Z,52.23
2019-03-20T03:35:26.363Z,44.27
2019-03-20T03:37:55.823Z,46.80
2019-03-20T03:40:25.232Z,48.40
2019-03-20T03:42:54.676Z,48.20
2019-03-20T03:45:24.111Z,44.20
2019-03-20T03:47:53.501Z,39.90
2019-03-20T03:50:22.862Z,45.40
2019-03-20T03:52:52.225Z,38.10
2019-03-20T03:55:21.635Z,42.30
2019-03-20T03:57:51.140Z,55.58
2019-03-20T04:00:20.828Z,42.40
2019-03-20T04:02:50.253Z,46.53
2019-03-20T04:05:19.707Z,40.90
2019-03-20T04:07:49.150Z,41.00
2019-03-20T04:10:18.833Z,38.63
2019-03-20T04:12:49.366Z,36.45
2019-03-20T04:15:18.860Z,39.57
2019-03-20T04:17:48.206Z,39.85
2019-03-20T04:20:18.716Z,56.30
2019-03-20T04:22:48.135Z,49.90
2019-03-20T04:25:17.588Z,50.85
2019-03-20T04:27:47.083Z,53.55
2019-03-20T04:30:19.963Z,42.15
2019-03-20T04:32:49.400Z,40.80
2019-03-20T04:35:18.745Z,43.00
2019-03-20T04:37:48.083Z,39.20
2019-03-20T04:40:19.188Z,47.67
2019-03-20T04:42:48.528Z,41.50
2019-03-20T04:45:18.056Z,49.65
2019-03-20T04:47:47.548Z,48.73
2019-03-20T04:50:17.287Z,50.73
2019-03-20T04:52:46.842Z,46.37
2019-03-20T04:55:16.252Z,50.20
2019-03-20T04:57:46.161Z,44.67
2019-03-20T05:00:23.962Z,53.33
2019-03-20T05:02:53.331Z,51.40
2019-03-20T05:05:22.724Z,47.45
2019-03-20T05:07:52.127Z,46.95
2019-03-20T05:10:21.513Z,51.57
2019-03-20T05:12:50.855Z,46.05
2019-03-20T05:15:20.272Z,39.88
2019-03-20T05:17:49.683Z,41.58
2019-03-20T05:20:22.825Z,39.08
2019-03-20T05:22:52.179Z,38.92
2019-03-20T05:25:21.589Z,45.17
2019-03-20T05:27:51.025Z,42.38
2019-03-20T05:30:20.453Z,41.58
2019-03-20T05:32:49.895Z,44.23
2019-03-20T05:35:19.375Z,48.90
2019-03-20T05:37:48.759Z,34.92
2019-03-20T05:40:18.934Z,45.57
2019-03-20T05:42:48.333Z,35.60
2019-03-20T05:45:18.926Z,40.03
2019-03-20T05:47:48.303Z,39.55
2019-03-20T05:50:18.283Z,32.20
2019-03-20T05:52:47.714Z,41.48
2019-03-20T05:55:17.277Z,38.60
2019-03-20T05:57:46.615Z,38.53
2019-03-20T06:00:21.674Z,38.35
2019-03-20T06:02:51.025Z,42.55
2019-03-20T06:05:20.400Z,39.20
2019-03-20T06:07:49.913Z,36.58
2019-03-20T06:10:19.515Z,41.37
2019-03-20T06:12:48.997Z,40.43
2019-03-20T06:15:18.395Z,41.45
2019-03-20T06:17:47.791Z,37.65
2019-03-20T06:20:17.126Z,38.33
2019-03-20T06:22:46.569Z,39.92
2019-03-20T06:25:16.646Z,40.85
2019-03-20T06:27:46.133Z,48.38
2019-03-20T06:30:18.915Z,49.05
2019-03-20T06:32:48.623Z,47.05
2019-03-20T06:35:18.048Z,43.90
2019-03-20T06:37:47.496Z,44.88
2019-03-20T06:40:17.791Z,55.65
2019-03-20T06:42:48.809Z,54.42
2019-03-20T06:45:19.021Z,59.70
2019-03-20T06:47:48.418Z,48.48
2019-03-20T06:50:19.015Z,57.20
2019-03-20T06:52:48.438Z,46.30
2019-03-20T06:55:17.779Z,56.25
2019-03-20T06:57:47.348Z,44.77
2019-03-20T07:00:36.231Z,49.08
2019-03-20T07:03:20.768Z,62.00
2019-03-20T07:06:01.809Z,64.35
2019-03-20T07:08:34.298Z,74.33
2019-03-20T07:11:05.588Z,54.13
2019-03-20T07:13:35.265Z,61.02
2019-03-20T07:16:05.561Z,55.15
2019-03-20T07:18:36.070Z,68.02
2019-03-20T07:21:06.655Z,62.95
2019-03-20T07:23:36.048Z,71.77
2019-03-20T07:26:05.828Z,66.92
2019-03-20T07:28:35.197Z,72.22
2019-03-20T07:31:14.827Z,57.53
2019-03-20T07:36:05.454Z,55.80
2019-03-20T07:38:34.819Z,62.35
2019-03-20T07:41:04.253Z,59.00
2019-03-20T07:43:34.675Z,66.95
2019-03-20T07:46:04.612Z,69.05
2019-03-20T07:48:34.189Z,73.47
2019-03-20T07:51:03.808Z,89.03
2019-03-20T07:53:33.237Z,93.70
2019-03-20T07:56:02.754Z,90.03
2019-03-20T07:58:32.180Z,99.20
2019-03-20T08:01:01.599Z,93.80
2019-03-20T08:03:30.969Z,89.60
2019-03-20T08:06:00.470Z,100.80
2019-03-20T08:08:29.859Z,96.67
2019-03-20T08:10:59.375Z,98.90
2019-03-20T08:13:28.806Z,104.07
2019-03-20T08:15:58.168Z,103.47
2019-03-20T08:18:27.511Z,100.53
2019-03-20T08:20:56.947Z,100.50
2019-03-20T08:23:26.302Z,95.60
2019-03-20T08:25:55.652Z,93.72
2019-03-20T08:28:26.114Z,104.90
2019-03-20T08:30:55.613Z,86.75
2019-03-20T08:33:25.044Z,89.45
2019-03-20T08:35:54.544Z,93.62
2019-03-20T08:38:24.073Z,91.10
2019-03-20T08:40:53.516Z,91.65
2019-03-20T08:43:23.057Z,92.77
2019-03-20T08:45:52.473Z,82.05
2019-03-20T08:48:21.944Z,88.05
2019-03-20T08:50:51.545Z,87.47
2019-03-20T08:53:21.063Z,94.47
2019-03-20T08:55:50.470Z,90.32
2019-03-20T08:58:19.898Z,90.03
2019-03-20T09:00:49.622Z,93.82
2019-03-20T09:03:19.267Z,85.83
2019-03-20T09:05:48.901Z,88.05
2019-03-20T09:08:28.509Z,83.97
2019-03-20T09:10:49.371Z,88.43
2019-03-20T09:13:18.820Z,91.20
2019-03-20T09:15:48.175Z,92.62
2019-03-20T09:18:19.285Z,85.07
2019-03-20T09:20:48.693Z,87.90
2019-03-20T09:23:18.177Z,99.00
2019-03-20T09:25:47.675Z,99.15
2019-03-20T09:28:17.152Z,103.10
2019-03-20T09:30:46.516Z,99.67
2019-03-20T09:33:17.361Z,103.12
2019-03-20T09:35:47.103Z,104.83
2019-03-20T09:38:17.441Z,109.32
2019-03-20T09:40:46.817Z,101.70
2019-03-20T09:43:16.235Z,103.05
2019-03-20T09:45:45.620Z,104.97
2019-03-20T09:48:15.018Z,108.32
2019-03-20T09:50:44.390Z,108.70
2019-03-20T09:53:15.401Z,110.67
2019-03-20T09:55:44.788Z,111.63
2019-03-20T09:58:14.227Z,109.10
2019-03-20T10:00:43.679Z,119.57
2019-03-20T10:03:13.121Z,116.85
2019-03-20T10:05:42.474Z,117.05
2019-03-20T10:08:11.852Z,133.10
2019-03-20T10:10:41.328Z,131.45
2019-03-20T10:13:10.752Z,129.62
2019-03-20T10:15:40.115Z,134.78
2019-03-20T10:18:09.499Z,129.60
2019-03-20T10:20:38.943Z,126.05
2019-03-20T10:23:08.320Z,121.95
2019-03-20T10:25:44.601Z,106.05
2019-03-20T10:28:08.860Z,120.60
2019-03-20T10:30:38.200Z,104.00
2019-03-20T10:33:07.599Z,106.63
2019-03-20T10:35:37.064Z,106.92
2019-03-20T10:38:06.446Z,98.27
2019-03-20T10:40:39.024Z,88.07
2019-03-20T10:43:08.392Z,88.00
2019-03-20T10:45:37.772Z,84.40
2019-03-20T10:48:07.146Z,87.95
2019-03-20T10:50:36.512Z,90.75
2019-03-20T10:53:05.928Z,83.33
2019-03-20T10:55:35.615Z,91.92
2019-03-20T10:58:05.247Z,87.20
2019-03-20T11:00:34.610Z,97.27
2019-03-20T11:03:04.176Z,100.90
2019-03-20T11:05:33.625Z,92.15
2019-03-20T11:08:03.111Z,89.95
2019-03-20T11:10:32.561Z,79.67
2019-03-20T11:13:02.000Z,90.22
2019-03-20T11:15:31.518Z,87.62
2019-03-20T11:18:00.951Z,89.95
2019-03-20T11:20:30.469Z,81.67
2019-03-20T11:22:59.831Z,88.55
2019-03-20T11:25:29.801Z,88.70
2019-03-20T11:28:00.870Z,80.53
2019-03-20T11:30:31.492Z,88.67
2019-03-20T11:33:00.973Z,89.23
2019-03-20T11:35:30.561Z,84.58
2019-03-20T11:37:59.986Z,78.05
2019-03-20T11:40:40.357Z,81.95
2019-03-20T11:43:09.802Z,84.70
2019-03-20T11:45:42.033Z,82.08
2019-03-20T11:48:11.400Z,80.67
2019-03-20T11:50:42.226Z,82.97
2019-03-20T11:53:11.780Z,79.17
2019-03-20T11:55:43.825Z,82.02
2019-03-20T11:58:13.430Z,78.87
2019-03-20T12:00:42.823Z,71.40
2019-03-20T12:03:12.415Z,81.25
2019-03-20T12:05:45.222Z,84.83
2019-03-20T12:08:16.284Z,79.43
2019-03-20T12:10:45.800Z,74.25
2019-03-20T12:13:16.233Z,77.15
2019-03-20T12:15:46.864Z,81.22
2019-03-20T12:18:16.343Z,74.17
2019-03-20T12:20:45.895Z,65.50
2019-03-20T12:23:15.260Z,72.12
2019-03-20T12:25:44.734Z,70.08
2019-03-20T12:28:14.123Z,67.93
2019-03-20T12:30:43.567Z,62.33
2019-03-20T12:33:13.159Z,57.87
2019-03-20T12:35:47.382Z,84.20
2019-03-20T12:38:16.834Z,64.70
2019-03-20T12:40:46.252Z,64.32
2019-03-20T12:43:15.663Z,60.47
2019-03-20T12:45:45.115Z,62.78
2019-03-20T12:48:16.702Z,63.83
2019-03-20T12:50:47.642Z,56.02
2019-03-20T12:53:20.111Z,58.10
2019-03-20T12:55:49.562Z,60.52
2019-03-20T12:58:18.963Z,76.93
2019-03-20T13:03:17.033Z,51.90
2019-03-20T13:05:46.512Z,55.50
2019-03-20T13:08:15.983Z,60.48
2019-03-20T13:10:45.440Z,56.55
2019-03-20T13:13:17.124Z,53.58
2019-03-20T13:15:46.956Z,60.38
2019-03-20T13:18:16.375Z,62.83
2019-03-20T13:20:45.738Z,60.90
2019-03-20T13:23:29.971Z,54.88
2019-03-20T13:26:00.886Z,53.25
2019-03-20T13:28:32.926Z,59.90
2019-03-20T13:33:34.933Z,66.70
2019-03-20T13:36:06.144Z,50.90
2019-03-20T13:38:35.564Z,57.23
2019-03-20T13:41:06.244Z,54.00
2019-03-20T13:43:38.314Z,50.13
2019-03-20T13:46:07.731Z,51.23
2019-03-20T13:48:37.145Z,68.80
2019-03-20T13:51:06.688Z,58.90
2019-03-20T13:53:36.145Z,50.73
2019-03-20T13:56:05.578Z,54.45
2019-03-20T13:58:34.996Z,49.67
2019-03-20T14:01:05.302Z,54.00
2019-03-20T14:03:34.779Z,65.37
2019-03-20T14:06:04.229Z,61.10
2019-03-20T14:08:33.669Z,50.38
2019-03-20T14:11:03.121Z,57.45
2019-03-20T14:13:32.620Z,56.80
2019-03-20T14:16:01.989Z,59.55
2019-03-20T14:18:32.388Z,53.40
2019-03-20T14:21:01.749Z,53.68
2019-03-20T14:23:31.114Z,71.15
2019-03-20T14:26:00.781Z,60.85
2019-03-20T14:28:30.369Z,52.95
2019-03-20T14:30:59.792Z,56.42
2019-03-20T14:33:29.160Z,45.88
2019-03-20T14:35:58.521Z,54.20
2019-03-20T14:38:27.938Z,51.42
2019-03-20T14:40:57.306Z,46.50
2019-03-20T14:46:17.805Z,46.13
2019-03-20T14:49:36.662Z,51.25
2019-03-20T14:55:46.595Z,46.97
2019-03-20T14:58:29.562Z,52.10
2019-03-20T15:01:21.587Z,47.50
2019-03-20T15:17:22.572Z,40.43
2019-03-20T15:19:51.948Z,43.78
2019-03-20T15:22:21.300Z,44.00
2019-03-20T15:24:50.678Z,37.65
2019-03-20T15:27:21.125Z,45.40
2019-03-20T15:29:50.510Z,40.28
2019-03-20T15:32:19.927Z,38.02
2019-03-20T15:34:49.292Z,40.45
2019-03-20T15:37:18.667Z,40.00
2019-03-20T15:39:48.022Z,42.73
2019-03-20T15:42:17.414Z,53.33
2019-03-20T15:44:46.872Z,46.35
2019-03-20T15:47:16.234Z,40.98
2019-03-20T15:49:45.673Z,44.93
2019-03-20T15:52:15.083Z,41.93
2019-03-20T15:54:44.502Z,44.60
2019-03-20T15:57:13.887Z,46.77
2019-03-20T15:59:43.248Z,48.40
2019-03-20T16:02:12.620Z,55.43
2019-03-20T16:04:42.094Z,49.00
2019-03-20T16:07:11.574Z,47.98
2019-03-20T16:09:40.923Z,46.70
2019-03-20T16:12:10.452Z,54.27
2019-03-20T16:14:40.165Z,57.15
2019-03-20T16:17:09.633Z,57.08
2019-03-20T16:19:40.560Z,52.33
2019-03-20T16:22:10.098Z,63.87
2019-03-20T16:24:39.587Z,56.25
2019-03-20T16:27:11.647Z,64.22
2019-03-20T16:29:41.081Z,66.57
2019-03-20T16:32:10.778Z,62.60
2019-03-20T16:34:40.377Z,62.70
2019-03-20T16:37:09.790Z,66.25
2019-03-20T16:39:40.433Z,62.30
2019-03-20T16:42:10.096Z,64.07
2019-03-20T16:44:39.515Z,63.00
2019-03-20T16:47:08.863Z,61.20
2019-03-20T16:49:39.792Z,61.77
2019-03-20T16:52:09.226Z,70.53
2019-03-20T16:54:38.581Z,67.62
2019-03-20T16:57:07.957Z,62.10
2019-03-20T16:59:37.378Z,61.92
2019-03-20T17:02:06.800Z,63.02
2019-03-20T17:04:36.178Z,58.40
2019-03-20T17:07:07.063Z,53.00
2019-03-20T17:09:37.978Z,57.83
2019-03-20T17:12:07.508Z,57.40
2019-03-20T17:14:37.120Z,54.60
2019-03-20T17:17:07.100Z,53.52
2019-03-20T17:19:36.543Z,51.60
2019-03-20T17:22:10.864Z,51.35
2019-03-20T17:24:40.348Z,58.02
2019-03-20T17:27:09.699Z,54.05
2019-03-20T17:29:45.525Z,48.45
2019-03-20T17:32:19.292Z,62.90
2019-03-20T17:34:48.743Z,51.20
2019-03-20T17:37:18.193Z,55.75
2019-03-20T17:39:49.174Z,50.12
2019-03-20T17:42:20.212Z,53.98
2019-03-20T17:44:49.643Z,52.50
2019-03-20T17:47:20.835Z,63.23
2019-03-20T17:49:51.861Z,61.02
2019-03-20T17:54:54.911Z,54.27
2019-03-20T17:57:24.271Z,58.92
2019-03-20T17:59:53.629Z,56.05
2019-03-20T18:02:24.190Z,63.70
2019-03-20T18:04:55.692Z,61.98
2019-03-20T18:07:27.870Z,64.67
2019-03-20T18:12:29.701Z,60.28
2019-03-20T18:17:32.659Z,56.35
2019-03-20T18:20:02.089Z,61.20
2019-03-20T18:22:31.513Z,61.50
2019-03-20T18:25:00.965Z,58.35
2019-03-20T18:27:30.564Z,69.77
2019-03-20T18:30:00.006Z,57.05
2019-03-20T18:32:30.541Z,62.08
2019-03-20T18:35:00.830Z,61.50
2019-03-20T18:37:31.658Z,66.12
2019-03-20T18:40:01.062Z,50.17
2019-03-20T18:42:30.656Z,57.03
2019-03-20T18:45:02.320Z,55.80
2019-03-20T18:47:31.639Z,48.50
2019-03-20T18:50:01.557Z,60.65
2019-03-20T18:52:32.083Z,57.60
2019-03-20T18:55:01.772Z,44.95
2019-03-20T18:57:31.237Z,44.48
2019-03-20T19:00:00.652Z,49.77
2019-03-20T19:02:30.099Z,49.13
2019-03-20T19:04:59.530Z,44.33
2019-03-20T19:07:29.886Z,43.25
2019-03-20T19:09:59.329Z,40.28
2019-03-20T19:12:28.790Z,42.62
2019-03-20T19:14:58.156Z,42.33
2019-03-20T19:17:27.634Z,49.55
2019-03-20T19:19:57.024Z,40.28
2019-03-20T19:22:26.431Z,32.40
2019-03-20T19:24:55.821Z,41.00
2019-03-20T19:27:25.273Z,32.93
2019-03-20T19:29:54.631Z,37.75
2019-03-20T19:32:24.031Z,35.10
2019-03-20T19:34:53.500Z,34.98
2019-03-20T19:37:23.191Z,34.75
2019-03-20T19:39:52.658Z,40.38
2019-03-20T19:42:22.026Z,33.43
2019-03-20T19:44:51.407Z,42.60
2019-03-20T19:47:20.832Z,35.03
2019-03-20T19:49:50.213Z,30.72
2019-03-20T19:52:19.873Z,40.65
2019-03-20T19:54:49.424Z,44.42
2019-03-20T19:57:18.794Z,40.80
2019-03-20T19:59:48.256Z,47.15
2019-03-20T20:02:17.631Z,46.10
2019-03-20T20:04:47.068Z,39.27
2019-03-20T20:07:16.491Z,39.07
2019-03-20T20:09:45.888Z,34.05
2019-03-20T20:12:15.376Z,34.60
2019-03-20T20:14:48.527Z,37.63
2019-03-20T20:17:17.975Z,36.93
2019-03-20T20:19:47.458Z,39.30
2019-03-20T20:22:16.882Z,42.67
2019-03-20T20:24:46.266Z,41.80
2019-03-20T20:27:15.627Z,49.75
2019-03-20T20:29:46.742Z,41.18
2019-03-20T20:32:16.187Z,42.43
2019-03-20T20:34:47.170Z,48.70
2019-03-20T20:37:16.599Z,43.87
2019-03-20T20:39:46.017Z,41.37
2019-03-20T20:42:18.411Z,45.48
2019-03-20T20:44:47.791Z,39.23
2019-03-20T20:47:20.318Z,38.25
2019-03-20T20:49:49.712Z,46.70
2019-03-20T20:52:19.865Z,38.13
2019-03-20T20:54:49.440Z,48.42
2019-03-20T20:57:20.480Z,50.12
2019-03-20T20:59:50.503Z,50.80
2019-03-20T21:02:19.969Z,46.83
2019-03-20T21:04:51.978Z,46.90
2019-03-20T21:07:23.017Z,46.10
2019-03-20T21:09:52.516Z,54.13
2019-03-20T21:12:21.918Z,51.80
2019-03-20T21:14:51.324Z,48.45
2019-03-20T21:17:41.601Z,59.50
2019-03-20T21:20:11.086Z,46.10
2019-03-20T21:23:15.446Z,46.98
2019-03-20T21:25:44.812Z,46.18
2019-03-20T21:28:50.224Z,49.05
2019-03-20T21:31:28.804Z,46.85
2019-03-20T21:34:32.935Z,51.35
2019-03-20T21:37:25.051Z,48.78
2019-03-20T21:39:54.468Z,48.25
2019-03-20T21:45:29.388Z,48.75
2019-03-20T21:47:58.759Z,59.03
2019-03-20T21:50:56.756Z,55.20
2019-03-20T21:53:41.122Z,59.77
2019-03-20T21:56:46.754Z,56.33
2019-03-20T21:59:47.589Z,50.90
2019-03-20T22:02:39.403Z,52.57
2019-03-20T22:05:38.911Z,54.58
2019-03-20T22:08:08.274Z,52.85
2019-03-20T22:11:00.000Z,64.97
2019-03-20T22:13:32.451Z,56.90
2019-03-20T22:16:24.541Z,54.23
2019-03-20T22:19:16.868Z,57.43
2019-03-20T22:22:05.701Z,54.20
2019-03-20T22:24:50.072Z,52.98
2019-03-20T22:27:34.371Z,61.30
2019-03-20T22:30:05.832Z,53.85
2019-03-20T22:33:11.296Z,51.58
2019-03-20T22:35:53.063Z,52.35
2019-03-20T22:38:25.833Z,58.30
2019-03-20T22:41:14.746Z,70.92
2019-03-20T22:43:52.971Z,69.55
2019-03-20T22:46:42.109Z,67.10
2019-03-20T22:49:32.079Z,69.45
2019-03-20T22:52:16.289Z,72.30
2019-03-20T22:55:03.671Z,69.50
2019-03-20T22:57:54.233Z,58.20
2019-03-20T23:00:24.089Z,64.87
2019-03-20T23:05:25.254Z,59.30
2019-03-20T23:07:55.688Z,71.97
2019-03-20T23:10:25.111Z,72.92
2019-03-20T23:12:56.090Z,71.20
2019-03-20T23:15:25.472Z,71.02
2019-03-20T23:17:54.956Z,74.47
2019-03-20T23:20:27.656Z,64.10
2019-03-20T23:22:57.009Z,76.22
2019-03-20T23:25:26.382Z,73.42
2019-03-20T23:27:55.825Z,75.40
2019-03-20T23:30:27.815Z,64.47
2019-03-20T23:32:57.314Z,71.42
2019-03-20T23:35:26.770Z,72.78
2019-03-20T23:37:56.299Z,72.82
2019-03-20T23:40:25.730Z,73.92
2019-03-20T23:42:58.250Z,80.00
2019-03-20T23:45:27.753Z,73.05
2019-03-20T23:48:05.832Z,71.35
2019-03-20T23:50:35.325Z,72.78
2019-03-20T23:53:05.679Z,75.40
2019-03-20T23:55:35.203Z,86.12
2019-03-20T23:58:05.516Z,70.78
